• Join FlightAware (Why Join?)
  • Login
  • US Flag 
09:47PM EDT


 

Airport Tracker/Info


-or-


 

Live Flight TrackerFlight Track Log ✈ QJE6200 ✈ 04-Sep-2013 ✈ YPAD / ADL - YPPH / PER

Flight Track Log - Related Links

Times and Time Zones

All times are in EDT time to prevent confusion due to time zone crossing. See the QJE6200 flight status page for this flight to view local times or setup timezone preferences in your user account.

Time Position Orientation Groundspeed Altitude Reporting Facility
EDT Latitude Longitude Course Direction KTS MPH feet Rate Location/Type
11:34PM -34.9440 138.5390 53° Northeast 143 165 600  Level FlightAware
11:35PM -34.9390 138.5460 49° Northeast 144 166 1,000 2,160 Climbing FlightAware
11:35PM -34.9300 138.5590 50° Northeast 169 194 1,700 1,680 Climbing FlightAware
11:35PM -34.9110 138.5830 46° Northeast 216 249 2,400 1,500 Climbing FlightAware
11:36PM -34.8930 138.6070 48° Northeast 253 291 3,100 2,220 Climbing FlightAware
11:36PM -34.8770 138.6300 50° Northeast 260 299 4,100 3,120 Climbing FlightAware
11:36PM -34.8610 138.6540 51° Northeast 268 308 5,200 3,180 Climbing FlightAware
11:37PM -34.8520 138.6650 45° Northeast 265 305 5,700 3,000 Climbing FlightAware
11:37PM -34.8420 138.6720 30° Northeast 265 305 6,200 3,180 Climbing FlightAware
11:37PM -34.8360 138.6740 15° North 262 302 6,500 2,700 Climbing FlightAware
11:37PM -34.8300 138.6750 North 260 299 6,700 3,060 Climbing FlightAware
11:37PM -34.7980 138.6640 344° North 253 291 8,200 3,360 Climbing FlightAware
11:38PM -34.7940 138.6580 309° West 260 299 8,500 3,600 Climbing FlightAware
11:38PM -34.7890 138.6520 315° West 260 299 8,800 3,180 Climbing FlightAware
11:38PM -34.7840 138.6400 297° West 261 300 9,300 3,600 Climbing FlightAware
11:38PM -34.7820 138.6320 287° West 259 298 9,700 3,060 Climbing FlightAware
11:38PM -34.7810 138.5890 272° West 283 326 11,100 2,280 Climbing FlightAware
11:39PM -34.8060 138.5250 245° Southwest 324 373 12,400 2,100 Climbing FlightAware
11:40PM -34.8250 138.4730 246° West 337 388 13,600 2,460 Climbing FlightAware
11:40PM -34.8180 138.4060 277° West 345 397 15,100 2,580 Climbing FlightAware
11:41PM -34.8040 138.3500 287° West 355 409 16,500 2,760 Climbing FlightAware
11:41PM -34.7860 138.2820 288° West 359 413 18,200 2,580 Climbing FlightAware
11:42PM -34.7670 138.2110 288° West 370 426 19,600 2,100 Climbing FlightAware
11:42PM -34.7370 138.1430 288° West 393 452 20,700 1,980 Climbing FlightAware
11:42PM -34.7361 138.1403 288° West 381 438 20,800 2,040 Climbing Aus ATC (RADAR)
11:43PM -34.7010 138.0790 304° West 403 464 21,900 2,040 Climbing FlightAware
11:44PM -34.6640 138.0130 304° West 406 467 23,200 2,280 Climbing FlightAware
11:44PM -34.6628 138.0096 304° West 402 463 23,300 1,500 Climbing Aus ATC (RADAR)
11:44PM -34.6260 137.9450 304° West 411 473 24,100 1,440 Climbing FlightAware
11:45PM -34.5890 137.8740 302° West 418 481 25,000 1,620 Climbing FlightAware
11:45PM -34.5666 137.8082 302° West 420 483 25,900 1,500 Climbing Aus ATC (RADAR)
11:45PM -34.5660 137.8000 302° West 423 487 25,900 1,320 Level FlightAware
11:46PM -34.5530 137.7170 281° West 427 491 26,800 1,500 Climbing FlightAware
11:46PM -34.5390 137.6350 282° West 430 495 27,700 1,440 Climbing FlightAware
11:47PM -34.5250 137.5490 281° West 431 496 28,500 1,500 Climbing FlightAware
11:48PM -34.5110 137.4680 282° West 425 489 29,500 1,800 Climbing FlightAware
11:48PM -34.5000 137.3977 282° West 421 484 30,500 1,860 Climbing Aus ATC (RADAR)
11:48PM -34.4980 137.3860 282° West 418 481 30,600 1,200 Climbing FlightAware
11:49PM -34.4850 137.3070 281° West 418 481 31,300 1,560 Climbing FlightAware
11:49PM -34.4728 137.2377 281° West 415 478 32,300 1,680 Climbing Aus ATC (RADAR)
11:49PM -34.4710 137.2290 281° West 413 475 32,300 1,020 Level FlightAware
11:50PM -34.4570 137.1470 282° West 414 476 33,000 1,260 Climbing FlightAware
11:51PM -34.4440 137.0660 281° West 413 475 33,800 840 Climbing FlightAware
11:51PM -34.4310 136.9910 282° West 413 475 34,000 120 Climbing FlightAware
11:52PM -34.4170 136.9090 282° West 409 471 34,000  Level FlightAware
11:52PM -34.4040 136.8330 282° West 411 473 34,000  Level FlightAware
11:53PM -34.3900 136.7550 282° West 410 472 34,000 60 Level FlightAware
11:53PM -34.3777 136.6866 282° West 408 470 34,100  Climbing Aus ATC (RADAR)
11:54PM -34.3760 136.6750 282° West 407 468 34,000 -180 Descending FlightAware
11:54PM -34.3620 136.5960 282° West 406 467 34,000 60 Level FlightAware
11:55PM -34.3496 136.5204 282° West 403 464 34,100  Climbing Aus ATC (RADAR)
11:55PM -34.3490 136.5200 282° West 405 466 34,000 -180 Descending FlightAware
11:55PM -34.3350 136.4430 282° West 402 463 34,000  Level FlightAware
11:56PM -34.3220 136.3660 282° West 400 460 34,000 60 Level FlightAware
11:56PM -34.3091 136.2899 282° West 401 461 34,100  Climbing Aus ATC (RADAR)
11:56PM -34.3090 136.2970 282° West 400 460 34,000 -180 Descending FlightAware
11:57PM -34.2940 136.2170 283° West 397 457 34,000  Level FlightAware
11:58PM -34.2780 136.1250 282° West 400 460 34,000  Level FlightAware
11:58PM -34.2630 136.0380 282° West 402 463 34,000  Level FlightAware
11:59PM -34.2460 135.9450 282° West 404 465 34,000  Level FlightAware
12:00AM -34.2310 135.8630 282° West 404 465 34,000  Level FlightAware
12:00AM -34.2140 135.7670 282° West 402 463 34,000  Level FlightAware
12:01AM -34.1960 135.6670 282° West 400 460 34,000  Level FlightAware
12:02AM -34.1820 135.5930 282° West 401 461 34,000 120 Level FlightAware
12:02AM -34.1797 135.5792 282° West 403 464 34,100  Climbing Aus ATC (RADAR)
12:02AM -34.1670 135.5140 283° West 399 459 34,000 -120 Descending FlightAware
12:03AM -34.1540 135.4400 282° West 398 458 34,000  Level FlightAware
12:04AM -34.1350 135.3300 282° West 399 459 34,000  Level FlightAware
12:04AM -34.1310 135.2530 274° West 401 461 34,000 60 Level FlightAware
12:05AM -34.1249 135.1283 274° West 402 463 34,100  Climbing Aus ATC (RADAR)
12:05AM -34.1260 135.1410 274° West 401 461 34,000 -180 Descending FlightAware
12:06AM -34.1200 135.0420 274° West 401 461 34,000  Level FlightAware
12:06AM -34.1170 134.9800 273° West 401 461 34,000 60 Level FlightAware
12:07AM -34.1123 134.8950 273° West 398 458 34,100  Climbing Aus ATC (RADAR)
12:07AM -34.1130 134.9010 273° West 401 461 34,000 -180 Descending FlightAware
12:08AM -34.1080 134.8110 274° West 402 463 34,000  Level FlightAware
12:08AM -34.1030 134.7180 274° West 401 461 34,000  Level FlightAware
12:09AM -34.1000 134.6480 273° West 401 461 34,000  Level FlightAware
12:10AM -34.0920 134.5200 274° West 557 641 34,000  Level FlightAware
12:10AM -34.0890 134.4610 273° West 399 459 34,000  Level FlightAware
12:11AM -34.0850 134.3980 273° West 399 459 34,000 180 Level FlightAware
12:11AM -34.0868 134.3821 273° West 401 461 34,100  Climbing Aus ATC (RADAR)
12:11AM -34.0820 134.3230 273° West 399 459 34,000 -120 Descending FlightAware
12:12AM -34.0750 134.2190 275° West 401 461 34,000  Level FlightAware
12:13AM -34.0710 134.1500 274° West 401 461 34,000  Level FlightAware
12:13AM -34.0670 134.0820 274° West 401 461 34,000  Level FlightAware
12:14AM -34.0630 134.0120 274° West 401 461 34,000  Level FlightAware
12:15AM -34.0590 133.9430 274° West 401 461 34,000  Level FlightAware
12:15AM -34.0550 133.8750 274° West 401 461 34,000  Level FlightAware
12:17AM -34.0335 133.5701 274° West 400 460 34,100  Climbing Aus ATC (RADAR)
12:18AM -34.0378 133.6017 274° West  Level FlightAware Approximate
12:21AM -34.0039 133.1166 274° West 34,000  Level Aus ATC (Calculated)
12:23AM -33.9886 132.8901 275° West  Level FlightAware Approximate
12:23AM -33.9762 132.7121 274° West 34,000  Level Aus ATC (Calculated)
12:24AM -33.9805 132.7740 275° West  Level FlightAware Approximate
12:25AM -33.9676 132.5902 275° West  Level FlightAware Approximate
12:26AM -33.9592 132.4741 275° West  Level FlightAware Approximate
12:26AM -33.9545 132.4088 274° West 34,000  Level Aus ATC (Calculated)
12:28AM -33.9377 132.1806 275° West  Level FlightAware Approximate
12:29AM -33.9290 132.0647 275° West  Level FlightAware Approximate
12:30AM -33.9202 131.9487 275° West  Level FlightAware Approximate
12:31AM -33.9112 131.8328 275° West  Level FlightAware Approximate
12:31AM -33.9030 131.7271 275° West 34,000  Level Aus ATC (Calculated)
12:33AM -33.8849 131.4992 275° West  Level FlightAware Approximate
12:33AM -33.8745 131.3764 275° West 34,000  Level Aus ATC (Calculated)
12:34AM -33.8946 131.6150 96° East  Level FlightAware Approximate
12:35AM -33.8873 131.5269 96° East  Level FlightAware Approximate
12:36AM -33.8775 131.4111 276° West  Level FlightAware Approximate
12:37AM -33.8873 131.5269 96° East  Level FlightAware Approximate
12:38AM -33.8775 131.4111 276° West  Level FlightAware Approximate
12:38AM -33.8296 130.8472 275° West 34,000  Level Aus ATC (Calculated)
12:39AM -33.8812 131.4540 276° West  Level FlightAware Approximate
12:40AM -33.8154 130.6853 276° West  Level FlightAware Approximate
12:41AM -33.8052 130.5697 276° West  Level FlightAware Approximate
12:42AM -33.7948 130.4541 276° West  Level FlightAware Approximate
12:43AM -33.7843 130.3385 276° West  Level FlightAware Approximate
12:43AM -33.7737 130.2228 276° West 34,000  Level Aus ATC (Calculated)
12:44AM -33.7737 130.2229 276° West  Level FlightAware Approximate
12:45AM -33.7587 130.0611 276° West  Level FlightAware Approximate
12:46AM -33.7478 129.9456 276° West  Level FlightAware Approximate
12:46AM -33.7411 129.8748 276° West 34,000  Level Aus ATC (Calculated)
12:47AM -33.7369 129.8302 276° West  Level FlightAware Approximate
12:48AM -33.7273 129.7305 277° West  Level FlightAware Approximate
12:48AM -33.7186 129.6400 276° West 34,000  Level Aus ATC (Calculated)
12:49AM -33.7161 129.6151 277° West  Level FlightAware Approximate
12:50AM -33.7026 129.4765 277° West  Level FlightAware Approximate
12:51AM -33.6912 129.3612 277° West  Level FlightAware Approximate
12:52AM -33.6797 129.2459 277° West  Level FlightAware Approximate
12:53AM -33.6681 129.1307 277° West  Level FlightAware Approximate
12:53AM -33.6573 129.0242 276° West 34,000  Level Aus ATC (Calculated)
12:54AM -33.6564 129.0154 277° West  Level FlightAware Approximate
12:55AM -33.6405 128.8611 277° West  Level FlightAware Approximate
12:56AM -33.6285 128.7459 277° West  Level FlightAware Approximate
12:57AM -33.6165 128.6308 277° West  Level FlightAware Approximate
12:58AM -33.6043 128.5157 277° West  Level FlightAware Approximate
12:58AM -33.6039 128.5118 276° West 34,000  Level Aus ATC (Calculated)
01:00AM -33.5862 128.3469 277° West  Level FlightAware Approximate
01:01AM -33.5738 128.2319 277° West  Level FlightAware Approximate
01:02AM -33.5612 128.1169 277° West  Level FlightAware Approximate
01:02AM -33.5483 128.0000 277° West 34,000  Level Aus ATC (Calculated)
01:03AM -33.5485 128.0020 277° West  Level FlightAware Approximate
01:04AM -33.4415 128.0000 North  Level FlightAware Approximate
01:04AM -33.5380 127.9059 277° West 34,000  Level Aus ATC (Calculated)
01:06AM -33.5631 128.1350 98° East  Level FlightAware Approximate
01:07AM -33.5505 128.0195 277° West  Level FlightAware Approximate
01:07AM -33.4958 127.5296 277° West 34,000  Level Aus ATC (Calculated)
01:08AM -33.5421 127.9433 277° West  Level FlightAware Approximate
01:09AM -33.4800 127.3912 278° West  Level FlightAware Approximate
01:10AM -33.4667 127.2759 278° West  Level FlightAware Approximate
01:11AM -33.4533 127.1606 278° West  Level FlightAware Approximate
01:12AM -33.4398 127.0454 278° West  Level FlightAware Approximate
01:12AM -33.4415 127.0598 277° West 34,000  Level Aus ATC (Calculated)
01:12AM -33.4415 127.0598 277° West 34,000  Level Aus ATC (Calculated)
01:14AM -33.4171 126.8534 278° West  Level FlightAware Approximate
01:15AM -33.4032 126.7376 278° West  Level FlightAware Approximate
01:16AM -33.3893 126.6220 278° West  Level FlightAware Approximate
01:17AM -33.3752 126.5063 278° West  Level FlightAware Approximate
01:17AM -33.3740 126.4969 277° West 34,000  Level Aus ATC (Calculated)
01:19AM -33.3472 126.2792 278° West  Level FlightAware Approximate
01:20AM -33.3328 126.1636 278° West  Level FlightAware Approximate
01:21AM -33.3183 126.0481 279° West  Level FlightAware Approximate
01:22AM -33.3037 125.9327 279° West  Level FlightAware Approximate
01:22AM -33.3158 126.0284 277° West 34,000  Level Aus ATC (Calculated)
01:24AM -33.2864 125.7971 279° West  Level FlightAware Approximate
01:25AM -33.2706 125.6744 279° West  Level FlightAware Approximate
01:25AM -33.2680 125.6541 278° West 34,000  Level Aus ATC (Calculated)
01:27AM -33.2444 125.4721 279° West  Level FlightAware Approximate
01:27AM -33.2437 125.4671 278° West 34,000  Level Aus ATC (Calculated)
01:27AM -33.2437 125.4671 278° West 34,000  Level Aus ATC (Calculated)
01:29AM -33.2254 125.3281 279° West  Level FlightAware Approximate
01:29AM -33.2067 125.1867 278° West 34,000  Level Aus ATC (Calculated)
01:30AM -33.2092 125.2055 279° West  Level FlightAware Approximate
01:30AM -33.1942 125.0934 278° West 34,000  Level Aus ATC (Calculated)
01:31AM -33.1892 125.0561 279° West  Level FlightAware Approximate
01:31AM -33.1817 125.0000 278° West 34,000  Level Aus ATC (Calculated)
01:32AM -33.1753 124.9525 279° West  Level FlightAware Approximate
01:33AM -33.2153 124.8652 253° West  Level FlightAware Approximate
01:34AM -33.1856 124.9842 73° East  Level FlightAware Approximate
01:34AM -33.1413 124.7049 278° West 34,000  Level Aus ATC (Calculated)
01:35AM -33.1661 124.8857 279° West  Level FlightAware Approximate
01:36AM -33.1231 124.5744 279° West  Level FlightAware Approximate
01:37AM -33.1061 124.4522 279° West  Level FlightAware Approximate
01:38AM -33.0888 124.3299 280° West  Level FlightAware Approximate
01:39AM -33.0715 124.2078 280° West  Level FlightAware Approximate
01:39AM -33.0583 124.1155 278° West 34,000  Level Aus ATC (Calculated)
01:40AM -33.0541 124.0857 280° West  Level FlightAware Approximate
01:41AM -33.0393 123.9832 280° West  Level FlightAware Approximate
01:42AM -33.0217 123.8612 280° West  Level FlightAware Approximate
01:42AM -33.0159 123.8212 278° West 34,000  Level Aus ATC (Calculated)
01:43AM -33.0039 123.7392 280° West  Level FlightAware Approximate
01:44AM -32.9950 123.6789 280° West  Level FlightAware Approximate
01:45AM -32.9771 123.5570 280° West  Level FlightAware Approximate
01:45AM -32.9871 123.6251 278° West 34,000  Level Aus ATC (Calculated)
01:45AM -32.9727 123.5272 278° West 34,000 60 Level Aus ATC (Calculated)
01:46AM -32.9581 123.4292 278° West 34,000 60 Level Aus ATC (Calculated)
01:48AM -32.9262 123.2161 280° West  Level FlightAware Approximate
01:49AM -32.9078 123.0944 280° West  Level FlightAware Approximate
01:49AM -32.8992 123.0378 278° West 34,000  Level Aus ATC (Calculated)
01:50AM -32.8892 122.9727 280° West  Level FlightAware Approximate
01:51AM -32.8787 122.9040 280° West  Level FlightAware Approximate
01:52AM -32.8600 122.7824 280° West  Level FlightAware Approximate
01:53AM -32.8412 122.6609 280° West  Level FlightAware Approximate
01:54AM -32.8222 122.5394 280° West  Level FlightAware Approximate
01:54AM -32.8238 122.5492 278° West 34,000  Level Aus ATC (Calculated)
01:55AM -32.8032 122.4180 281° West  Level FlightAware Approximate
01:56AM -32.8025 122.4137 281° West  Level FlightAware Approximate
01:57AM -32.7833 122.2923 281° West  Level FlightAware Approximate
01:58AM -32.7640 122.1710 281° West  Level FlightAware Approximate
01:58AM -32.7621 122.1590 277° West 34,000  Level Aus ATC (Calculated)
01:59AM -32.7445 122.0497 281° West  Level FlightAware Approximate
02:00AM -32.7355 121.9933 281° West  Level FlightAware Approximate
02:01AM -32.7223 121.8709 277° West  Level Estimated
02:02AM -32.7094 121.7484 277° West  Level FlightAware Approximate
02:03AM -32.6964 121.6260 277° West  Level FlightAware Approximate
02:03AM -32.6832 121.5599 277° West 34,000  Level Aus ATC (Calculated)
02:05AM -32.6644 121.3824 277° West  Level FlightAware Approximate
02:05AM -32.6615 121.3554 278° West 34,000  Level Aus ATC (Calculated)
02:06AM -32.6513 121.2601 277° West  Level FlightAware Approximate
02:07AM -32.6466 121.2168 277° West  Level FlightAware Approximate
02:08AM -32.6334 121.0945 277° West  Level FlightAware Approximate
02:08AM -32.6284 121.0490 278° West 34,000  Level Aus ATC (Calculated)
02:09AM -32.6172 120.9469 278° West 34,000 240 Level Aus ATC (Calculated)
02:10AM -32.6033 120.8208 277° West  Level FlightAware Approximate
02:11AM -32.6019 120.8084 277° West  Level FlightAware Approximate
02:12AM -32.5883 120.6862 278° West  Level FlightAware Approximate
02:13AM -32.5745 120.5641 278° West  Level FlightAware Approximate
02:14AM -32.5606 120.4420 278° West  Level FlightAware Approximate
02:14AM -32.5600 120.4368 278° West 34,000  Level Aus ATC (Calculated)
02:16AM -32.5392 120.2557 278° West  Level FlightAware Approximate
02:16AM -32.4898 119.8861 278° West 362 417 36,200  Level Aus ATC (RADAR)
02:17AM -32.4748 119.7436 277° West 344 396 36,200  Level Aus ATC (RADAR)
02:18AM -32.4601 119.6291 279° West 346 398 36,200  Level Aus ATC (RADAR)
02:19AM -32.4487 119.5337 278° West 345 397 36,200  Level Aus ATC (RADAR)
02:19AM -32.4384 119.4672 280° West 346 398 36,200  Level Aus ATC (RADAR)
02:20AM -32.4287 119.3816 278° West 343 395 36,200  Level Aus ATC (RADAR)
02:21AM -32.4197 119.3051 278° West 345 397 36,200 60 Level Aus ATC (RADAR)
02:21AM -32.4097 119.2193 278° West 346 398 36,300 -120 Climbing Aus ATC (RADAR)
02:23AM -32.4000 119.0950 280° West 355 409 36,000  Descending FlightAware
02:23AM -32.3888 119.0371 278° West 345 397 36,300  Climbing Aus ATC (RADAR)
02:23AM -32.3870 118.9960 279° West 355 409 36,000  Descending FlightAware
02:24AM -32.3804 118.9801 280° West 345 397 36,300  Climbing Aus ATC (RADAR)
02:24AM -32.3760 118.9110 279° West 354 407 36,000 -240 Descending FlightAware
02:25AM -32.3670 118.8370 278° West 356 410 36,000  Level FlightAware
02:25AM -32.3590 118.7740 279° West 357 411 36,000  Level FlightAware
02:26AM -32.3490 118.6930 278° West 357 411 36,000  Level FlightAware
02:27AM -32.3410 118.6300 279° West 357 411 36,000  Level FlightAware
02:27AM -32.3380 118.5650 273° West 362 417 36,000  Level FlightAware
02:28AM -32.3410 118.4850 267° West 363 418 36,000  Level FlightAware
02:28AM -32.3440 118.4020 268° West 363 418 36,000  Level FlightAware
02:29AM -32.3450 118.3480 269° West 363 418 36,000 240 Level FlightAware
02:29AM -32.3448 118.2793 269° West 352 405 36,300  Climbing Aus ATC (RADAR)
02:30AM -32.3480 118.2430 269° West 362 417 36,000 -360 Descending FlightAware
02:30AM -32.3500 118.1740 268° West 364 419 36,000  Level FlightAware
02:31AM -32.3520 118.1040 268° West 365 420 36,000  Level FlightAware
02:32AM -32.3540 118.0360 268° West 366 421 36,000 240 Level FlightAware
02:32AM -32.3542 117.9711 268° West 357 411 36,300  Climbing Aus ATC (RADAR)
02:32AM -32.3560 117.9640 268° West 368 423 36,000 -540 Descending FlightAware
02:33AM -32.3580 117.8950 268° West 369 425 36,000  Level FlightAware
02:33AM -32.3600 117.8160 268° West 364 419 36,000 240 Level FlightAware
02:34AM -32.3598 117.7515 268° West 353 406 36,300  Climbing Aus ATC (RADAR)
02:34AM -32.3620 117.7360 268° West 362 417 36,000 -1,620 Descending FlightAware
02:35AM -32.3630 117.6660 269° West 353 406 35,200 -2,340 Descending FlightAware
02:35AM -32.3520 117.6100 283° West 348 400 33,500 -3,240 Descending FlightAware
02:36AM -32.3370 117.5460 285° West 346 398 31,700 -2,760 Descending FlightAware
02:36AM -32.3200 117.4740 286° West 333 383 30,100 -1,740 Descending FlightAware
02:37AM -32.3080 117.4230 286° West 330 380 29,700 -1,440 Descending FlightAware
02:37AM -32.2930 117.3610 286° West 324 373 28,600 -2,040 Descending FlightAware
02:38AM -32.2770 117.2930 286° West 326 375 27,200 -2,160 Descending FlightAware
02:39AM -32.2640 117.2420 287° West 332 382 26,100 -2,400 Descending FlightAware
02:39AM -32.2490 117.1800 286° West 332 382 24,600 -2,340 Descending FlightAware
02:40AM -32.2320 117.1090 286° West 328 377 23,200 -1,800 Descending FlightAware
02:40AM -32.2179 117.0563 286° West 316 364 22,500 -2,100 Descending Aus ATC (RADAR)
02:40AM -32.2170 117.0500 286° West 326 375 22,000 -2,760 Descending FlightAware
02:41AM -32.2050 116.9980 285° West 322 371 21,000 -1,980 Descending FlightAware
02:42AM -32.1900 116.9380 286° West 314 361 19,900 -1,800 Descending FlightAware
02:42AM -32.1660 116.8780 295° West 306 352 18,800 -1,800 Descending FlightAware
02:43AM -32.1390 116.8380 309° West 302 348 17,800 -1,920 Descending FlightAware
02:43AM -32.1050 116.7850 307° West 301 346 16,600 -1,920 Descending FlightAware
02:44AM -32.0790 116.7460 308° West 297 342 15,600 -1,440 Descending FlightAware
02:44AM -32.0490 116.7020 309° West 291 335 15,100 -840 Descending FlightAware
02:45AM -32.0160 116.6520 308° West 291 335 14,600 -960 Descending FlightAware
02:46AM -31.9870 116.6080 308° West 289 333 13,900 -1,500 Descending FlightAware
02:46AM -31.9620 116.5710 309° West 286 329 13,000 -1,860 Descending FlightAware
02:47AM -31.9420 116.5400 307° West 277 319 12,200 -1,560 Descending FlightAware
02:47AM -31.9184 116.4934 307° West 272 313 11,400 -1,980 Descending Aus ATC (RADAR)
02:47AM -31.9160 116.4870 307° West 287 330 10,900 -2,760 Descending FlightAware
02:48AM -31.8960 116.4490 302° West 282 325 9,900 -1,920 Descending FlightAware
02:48AM -31.8830 116.4230 300° West 269 310 9,300 -1,800 Descending FlightAware
02:48AM -31.8700 116.3980 301° West 264 304 8,700 -1,920 Descending FlightAware
02:49AM -31.8600 116.3790 302° West 263 303 8,200 -1,740 Descending FlightAware
02:49AM -31.8470 116.3540 301° West 263 303 7,700 -1,740 Descending FlightAware
02:49AM -31.8380 116.3350 299° West 262 302 7,200 -1,740 Descending FlightAware
02:50AM -31.8250 116.3110 303° West 258 297 6,700 -1,680 Descending FlightAware
02:50AM -31.8130 116.2860 299° West 258 297 6,100 -1,380 Descending FlightAware
02:50AM -31.7980 116.2580 302° West 240 276 5,700 -1,200 Descending FlightAware
02:51AM -31.7890 116.2330 293° West 235 270 5,200 -1,380 Descending FlightAware
02:51AM -31.7870 116.2140 277° West 234 269 4,900 -1,080 Descending FlightAware
02:51AM -31.7890 116.1890 265° West 234 269 4,600 -900 Descending FlightAware
02:52AM -31.7900 116.1640 267° West 231 266 4,300 -900 Descending FlightAware
02:52AM -31.7920 116.1390 265° West 225 259 4,000 -900 Descending FlightAware
02:52AM -31.7930 116.1150 267° West 214 246 3,700 -900 Descending FlightAware
02:53AM -31.7940 116.0930 267° West 208 239 3,400 -1,080 Descending FlightAware
02:53AM -31.7950 116.0760 266° West 208 239 3,100 -1,080 Descending FlightAware
02:53AM -31.7970 116.0530 264° West 198 228 2,800 -900 Descending FlightAware
02:54AM -31.7990 116.0330 263° West 186 214 2,500 -780 Descending FlightAware
02:54AM -31.8010 116.0130 263° West 176 203 2,300 -720 Descending FlightAware
02:54AM -31.8040 116.0090 229° Southwest 174 200 2,200 -600 Descending FlightAware
02:54AM -31.8070 116.0060 220° Southwest 178 205 2,200  Level FlightAware
02:54AM -31.8140 116.0020 206° Southwest 173 199 2,200 -840 Level FlightAware
02:55AM -31.8300 115.9970 195° South 180 207 1,800 -1,200 Descending FlightAware
02:55AM -31.8420 115.9940 192° South 164 189 1,500 -1,080 Descending FlightAware
02:55AM -31.8570 115.9890 196° South 154 177 1,200 -780 Descending FlightAware
02:55AM -31.8690 115.9860 192° South 133 153 1,000 -720 Descending FlightAware
02:56AM -31.8780 115.9830 196° South 117 135 800 -720 Descending FlightAware
02:56AM -31.8880 115.9800 194° South 115 132 600 -600 Descending FlightAware
02:56AM -31.8980 115.9770 194° South 105 121 400 -540 Descending FlightAware
02:57AM -31.9060 115.9750 192° South 119 137 300 -540 Descending FlightAware
02:57AM -31.9160 115.9720 194° South 118 136 100 -600 Descending FlightAware
02:57AM -31.9270 115.9690 193° South 118 136 -300 Descending FlightAware